Aérodrome :
LOGIN :

S'inscrire | Disclaimer

   EN    FR    IT 

 










Légende :    VFR   VFR Marginal   IFR   IFR Intensif   IFR Très Intensif
Visi : 
Plafond : 
>= 8 km
>= 3000ft
5 à 8 km
1000 à 3000 ft
1500m à 5 km
500 à 1000 ft
800 à 1500m
200 à 500 ft
< 800m
< 200 ft
Symboles :   Orages  Brouillard  Fortes neiges  Fortes précipitations  Vent > 20 kt
SIGMETs :   Divers  Orages  Givrage  Turbulence  Onde Orograph.  Cendres Volcan.







- Altitude de l'aérodrome : 16 ft
- Code IATA : EAS


LESO - San Sebastian Fuenterrabia

DERNIER METAR :
  • 231530Z 27003KT 210V010 9999 SCT015 OVC025 13/10 Q1016

METARs EXPIRÉS :
  • 231500Z VRB02KT 9999 SCT017 OVC025 14/10 Q1016
  • 231430Z 26004KT 190V360 9999 SCT020 OVC025 13/09 Q1016
  • 231400Z VRB04KT 9000 SCT017 OVC020 13/10 Q1016
  • 231330Z VRB03KT 9000 SCT017 OVC020 13/09 Q1016
  • 231300Z VRB03KT 8000 SCT015 OVC020 13/09 Q1017

TAF TAF LESO
Valide du 23 à 12h jusqu'au 24 à 12h UTC


231100Z 2312/2412 26007KT 7000 BKN014 TX14/2314Z TN06/2406Z
PROB40
TEMPO 2312/2317 SCT016
PROB30
TEMPO 2316/2319 4500 -DZ BR BKN009
TEMPO 2319/2412 32010KT 4000 -RADZ BKN008
PROB30
TEMPO 2323/2410 2500 RA BKN006
Pas de NOTAMs connus pour ce terrain.
1 SIGMET publié pour la FIR Madrid (LECM) :
 
Orages noyés dans la masse
LECM SIGMET 7 VALID 231500/231700 LEVA
LECM MADRID FIR/UIR EMBD TS OBS AT 1446Z WI N3720 W00530 - N3610 W00530 - N3620 W00220 - N3930 W00130 - N3930 W00350 TOP FL320 STNR NC=



MET'MAP, la Météo Aéronautique d'un coup d'oeil ! - Copyright ORBIFLY Décembre 2007 - Disclaimer

ORBIFLY MET'MAP TEAM :

Programmation & Développement : Alexandra Zaïnal
Conception & Développement : Baudouin d'Aumeries
Co-Programmation & Développement : Marc-Olivier Méhu
Soutien technique & logistique : Manuel Goepfert

Contact : metmap@orbifly.com




SOURCES & CREDITS :

   NOAA